KBGR/BGR METAR and TAF weather

Enter ICAO airport designator
Station Type Date Time Source
KBGR METAR 2022/05/25 00:53 UTC NOAA

KBGR 250053Z 17008KT 10SM FEW180 SCT240 11/04 A3034 RMK AO2 SLP272 T01110044


Station Type Date Time Source
KBGR Decoded METAR 2022/05/25 00:53 UTC NOAA

BANGOR INT'L AIRPORT, ME, United States (KBGR) 44-48N 068-49W 57M
May 24, 2022 - 08:53 PM EDT / 2022.05.25 0053 UTC
Wind: from the S (170 degrees) at 9 MPH (8 KT):0
Visibility: 10 mile(s):0
Sky conditions: partly cloudy
Temperature: 52.0 F (11.1 C)
Dew Point: 39.9 F (4.4 C)
Relative Humidity: 63%
Pressure (altimeter): 30.34 in. Hg (1027 hPa)
ob: KBGR 250053Z 17008KT 10SM FEW180 SCT240 11/04 A3034 RMK AO2 SLP272 T01110044
cycle: 1

Station Type Date Time Source
KBGR TAF 2022/05/24 18:22 UTC NOAA

TAF KBGR 241720Z 2418/2518 VRB05KT P6SM SCT050
FM242300 18005KT P6SM FEW150
FM250700 20003KT P6SM FEW100
FM251500 22005KT P6SM FEW060

Example: see airport list